createdAt,value
2022-09-20T00:01:33.542Z,1.40
2022-09-20T00:04:05.305Z,4.13
2022-09-20T00:06:34.186Z,4.40
2022-09-20T00:09:03.206Z,1.73
2022-09-20T00:11:32.777Z,3.28
2022-09-20T00:14:02.446Z,1.50
2022-09-20T00:16:35.508Z,2.10
2022-09-20T00:19:04.330Z,1.58
2022-09-20T00:21:35.256Z,2.75
2022-09-20T00:24:03.685Z,1.90
2022-09-20T00:26:31.481Z,3.90
2022-09-20T00:28:59.329Z,4.72
2022-09-20T00:31:27.098Z,1.73
2022-09-20T00:34:14.895Z,2.00
2022-09-20T00:36:43.035Z,3.80
2022-09-20T00:39:15.362Z,2.55
2022-09-20T00:41:43.804Z,3.33
2022-09-20T00:44:45.548Z,2.10
2022-09-20T00:47:36.879Z,2.35
2022-09-20T00:50:24.464Z,1.95
2022-09-20T00:53:00.542Z,4.10
2022-09-20T00:55:29.168Z,3.88
2022-09-20T00:57:58.589Z,6.05
2022-09-20T01:00:27.661Z,4.55
2022-09-20T01:03:00.671Z,3.03
2022-09-20T01:05:28.710Z,2.58
2022-09-20T01:07:57.640Z,3.00
2022-09-20T01:12:54.476Z,2.83
2022-09-20T01:15:24.026Z,3.78
2022-09-20T01:17:53.990Z,3.22
2022-09-20T01:20:27.040Z,3.80
2022-09-20T01:23:03.551Z,2.65
2022-09-20T01:25:48.446Z,3.60
2022-09-20T01:28:16.830Z,3.90
2022-09-20T01:31:00.577Z,3.55
2022-09-20T01:33:58.542Z,2.38
2022-09-20T01:36:38.625Z,3.08
2022-09-20T01:39:25.477Z,2.72
2022-09-20T01:42:05.130Z,2.75
2022-09-20T01:47:35.789Z,2.55
2022-09-20T01:50:27.081Z,2.53
2022-09-20T01:52:57.310Z,2.10
2022-09-20T01:56:02.395Z,3.75
2022-09-20T01:59:22.576Z,3.60
2022-09-20T02:02:03.961Z,2.15
2022-09-20T02:04:49.937Z,3.10
2022-09-20T02:07:49.303Z,5.63
2022-09-20T02:10:28.519Z,3.33
2022-09-20T02:13:07.330Z,3.90
2022-09-20T02:16:08.850Z,3.60
2022-09-20T02:19:01.196Z,2.85
2022-09-20T02:21:43.078Z,5.63
2022-09-20T02:24:38.079Z,8.95
2022-09-20T02:27:11.617Z,2.80
2022-09-20T02:29:54.787Z,4.07
2022-09-20T02:32:30.935Z,2.30
2022-09-20T02:35:19.996Z,2.53
2022-09-20T02:38:06.201Z,2.40
2022-09-20T02:41:11.867Z,2.70
2022-09-20T02:43:54.621Z,4.82
2022-09-20T02:46:44.230Z,6.18
2022-09-20T02:49:25.457Z,3.38
2022-09-20T02:52:00.818Z,3.80
2022-09-20T02:54:43.410Z,2.40
2022-09-20T02:57:13.570Z,2.75
2022-09-20T02:59:52.514Z,4.28
2022-09-20T03:02:53.918Z,3.08
2022-09-20T03:05:43.344Z,3.80
2022-09-20T03:08:41.637Z,4.30
2022-09-20T03:11:35.116Z,4.50
2022-09-20T03:14:17.929Z,3.25
2022-09-20T03:16:52.574Z,3.55
2022-09-20T03:19:48.470Z,5.13
2022-09-20T03:22:53.894Z,1.95
2022-09-20T03:25:58.688Z,2.30
2022-09-20T03:29:00.670Z,3.35
2022-09-20T03:31:40.636Z,4.25
2022-09-20T03:34:32.907Z,3.00
2022-09-20T03:37:26.752Z,3.35
2022-09-20T03:40:15.757Z,3.35
2022-09-20T03:42:54.277Z,3.13
2022-09-20T03:45:40.394Z,9.43
2022-09-20T03:48:41.368Z,2.17
2022-09-20T03:51:14.586Z,3.53
2022-09-20T03:54:04.037Z,2.92
2022-09-20T03:57:06.460Z,1.90
2022-09-20T03:59:54.296Z,2.10
2022-09-20T04:02:46.090Z,3.00
2022-09-20T04:05:19.314Z,4.55
2022-09-20T04:08:33.336Z,4.97
2022-09-20T04:11:30.279Z,5.43
2022-09-20T04:14:16.430Z,5.88
2022-09-20T04:17:11.716Z,4.38
2022-09-20T04:19:54.124Z,5.03
2022-09-20T04:22:25.340Z,3.85
2022-09-20T04:25:04.977Z,2.85
2022-09-20T04:30:32.067Z,3.17
2022-09-20T04:33:08.912Z,2.42
2022-09-20T04:36:07.018Z,3.40
2022-09-20T04:38:35.837Z,3.45
2022-09-20T04:41:35.877Z,1.73
2022-09-20T04:44:27.863Z,2.83
2022-09-20T04:47:12.009Z,2.70
2022-09-20T04:50:20.864Z,1.58
2022-09-20T04:53:14.747Z,3.60
2022-09-20T04:56:14.838Z,2.00
2022-09-20T04:59:06.691Z,4.38
2022-09-20T05:01:36.465Z,6.85
2022-09-20T05:04:28.587Z,4.88
2022-09-20T05:07:33.462Z,2.40
2022-09-20T05:10:35.012Z,4.93
2022-09-20T05:13:27.774Z,2.45
2022-09-20T05:16:04.450Z,2.75
2022-09-20T05:18:43.266Z,2.38
2022-09-20T05:21:42.260Z,3.60
2022-09-20T05:24:28.651Z,1.90
2022-09-20T05:27:22.719Z,2.33
2022-09-20T05:30:16.593Z,3.25
2022-09-20T05:33:10.617Z,2.78
2022-09-20T05:35:59.257Z,4.30
2022-09-20T05:39:03.505Z,4.38
2022-09-20T05:42:03.239Z,3.08
2022-09-20T05:45:00.338Z,2.97
2022-09-20T05:48:16.004Z,2.17
2022-09-20T05:51:05.172Z,2.97
2022-09-20T05:56:28.037Z,2.70
2022-09-20T05:59:14.094Z,3.83
2022-09-20T06:01:51.102Z,3.75
2022-09-20T06:04:53.135Z,3.15
2022-09-20T06:07:32.714Z,3.97
2022-09-20T06:10:17.121Z,2.47
2022-09-20T06:12:54.274Z,4.35
2022-09-20T06:15:56.338Z,2.70
2022-09-20T06:18:33.410Z,3.20
2022-09-20T06:21:25.150Z,5.47
2022-09-20T06:24:04.371Z,9.40
2022-09-20T06:26:37.020Z,4.35
2022-09-20T06:29:11.712Z,5.72
2022-09-20T06:31:39.382Z,3.47
2022-09-20T06:34:10.642Z,3.38
2022-09-20T06:37:04.491Z,4.57
2022-09-20T06:40:10.616Z,3.50
2022-09-20T06:42:38.647Z,4.40
2022-09-20T06:45:06.638Z,5.57
2022-09-20T06:47:38.120Z,4.72
2022-09-20T06:50:07.184Z,7.60
2022-09-20T06:52:35.750Z,6.78
2022-09-20T06:55:07.482Z,4.38
2022-09-20T06:57:38.096Z,5.13
2022-09-20T07:00:10.154Z,5.25
2022-09-20T07:02:37.916Z,3.70
2022-09-20T07:05:07.559Z,2.72
2022-09-20T07:07:35.292Z,4.47
2022-09-20T07:10:02.884Z,3.25
2022-09-20T07:12:32.223Z,2.75
2022-09-20T07:17:27.875Z,5.13
2022-09-20T07:19:57.198Z,6.20
2022-09-20T07:22:24.727Z,7.85
2022-09-20T07:24:52.886Z,3.97
2022-09-20T07:27:21.371Z,3.72
2022-09-20T07:29:48.984Z,6.90
2022-09-20T07:32:18.042Z,8.98
2022-09-20T07:34:45.969Z,11.63
2022-09-20T07:37:14.094Z,8.75
2022-09-20T07:39:42.108Z,13.07
2022-09-20T07:42:09.675Z,5.90
2022-09-20T07:44:37.247Z,5.88
2022-09-20T07:47:06.442Z,4.20
2022-09-20T07:52:02.774Z,6.20
2022-09-20T07:54:30.502Z,3.83
2022-09-20T07:56:58.070Z,5.22
2022-09-20T07:59:26.080Z,3.95
2022-09-20T08:01:53.886Z,4.68
2022-09-20T08:04:21.466Z,5.90
2022-09-20T08:06:49.014Z,5.70
2022-09-20T08:09:16.784Z,6.60
2022-09-20T08:11:44.278Z,3.00
2022-09-20T08:14:17.018Z,4.13
2022-09-20T08:16:47.974Z,4.70
2022-09-20T08:19:21.201Z,4.25
2022-09-20T08:21:50.671Z,4.93
2022-09-20T08:24:19.036Z,5.40
2022-09-20T08:26:46.734Z,6.75
2022-09-20T08:29:15.565Z,4.73
2022-09-20T08:31:43.948Z,5.68
2022-09-20T08:34:14.994Z,4.22
2022-09-20T08:36:47.833Z,3.35
2022-09-20T08:42:14.840Z,3.20
2022-09-20T08:45:11.370Z,6.13
2022-09-20T08:47:58.862Z,5.15
2022-09-20T08:50:28.184Z,4.15
2022-09-20T08:53:00.654Z,2.45
2022-09-20T08:55:39.920Z,5.78
2022-09-20T08:58:13.641Z,3.90
2022-09-20T09:00:45.083Z,3.45
2022-09-20T09:03:17.163Z,5.50
2022-09-20T09:05:49.311Z,3.55
2022-09-20T09:08:28.338Z,3.67
2022-09-20T09:11:18.776Z,2.95
2022-09-20T09:13:57.293Z,1.95
2022-09-20T09:16:34.743Z,2.22
2022-09-20T09:19:33.340Z,3.20
2022-09-20T09:22:03.907Z,3.47
2022-09-20T09:24:31.922Z,5.00
2022-09-20T09:27:17.143Z,2.42
2022-09-20T09:29:54.506Z,3.50
2022-09-20T09:32:31.154Z,2.28
2022-09-20T09:35:30.673Z,2.83
2022-09-20T09:38:01.225Z,2.22
2022-09-20T09:40:31.822Z,5.35
2022-09-20T09:43:01.914Z,4.07
2022-09-20T09:45:36.385Z,4.07
2022-09-20T09:48:22.954Z,3.53
2022-09-20T09:50:50.949Z,3.38
2022-09-20T09:53:22.855Z,2.85
2022-09-20T09:56:23.103Z,3.03
2022-09-20T09:59:12.574Z,3.03
2022-09-20T10:02:04.502Z,4.55
2022-09-20T10:04:57.587Z,9.23
2022-09-20T10:07:40.111Z,9.27
2022-09-20T10:10:26.622Z,5.10
2022-09-20T10:13:18.940Z,6.30
2022-09-20T10:16:41.509Z,3.95
2022-09-20T10:19:27.631Z,3.90
2022-09-20T10:22:18.514Z,4.78
2022-09-20T10:25:36.900Z,3.60
2022-09-20T10:28:29.644Z,3.40
2022-09-20T10:31:25.515Z,4.25
2022-09-20T10:34:12.154Z,6.05
2022-09-20T10:36:58.432Z,6.63
2022-09-20T10:39:33.968Z,5.82
2022-09-20T10:42:50.110Z,5.13
2022-09-20T10:45:55.969Z,4.03
2022-09-20T10:48:31.740Z,4.07
2022-09-20T10:51:31.359Z,3.80
2022-09-20T10:56:41.418Z,5.60
2022-09-20T10:59:24.944Z,5.13
2022-09-20T11:02:10.809Z,8.23
2022-09-20T11:05:17.056Z,4.47
2022-09-20T11:07:54.529Z,4.65
2022-09-20T11:10:29.072Z,5.80
2022-09-20T11:13:02.299Z,4.93
2022-09-20T11:16:09.097Z,5.47
2022-09-20T11:19:13.993Z,7.43
2022-09-20T11:21:50.883Z,8.75
2022-09-20T11:24:31.640Z,5.90
2022-09-20T11:27:11.052Z,5.95
2022-09-20T11:29:53.721Z,8.02
2022-09-20T11:32:29.872Z,7.53
2022-09-20T11:35:21.530Z,4.65
2022-09-20T11:38:25.730Z,6.90
2022-09-20T11:41:03.102Z,8.02
2022-09-20T11:43:32.870Z,6.30
2022-09-20T11:46:05.787Z,7.80
2022-09-20T11:48:39.612Z,6.35
2022-09-20T11:51:17.116Z,5.20
2022-09-20T11:53:54.194Z,5.78
2022-09-20T11:56:25.043Z,7.32
2022-09-20T11:58:59.945Z,8.88
2022-09-20T12:01:29.698Z,5.05
2022-09-20T12:04:27.885Z,5.63
2022-09-20T12:07:08.943Z,5.80
2022-09-20T12:09:42.958Z,7.35
2022-09-20T12:12:32.764Z,4.32
2022-09-20T12:15:02.873Z,6.65
2022-09-20T12:17:49.726Z,8.27
2022-09-20T12:20:32.817Z,6.20
2022-09-20T12:23:38.643Z,5.72
2022-09-20T12:26:11.091Z,6.55
2022-09-20T12:28:42.086Z,5.40
2022-09-20T12:31:19.011Z,7.50
2022-09-20T12:34:10.979Z,3.78
2022-09-20T12:36:43.237Z,4.90
2022-09-20T12:39:19.066Z,4.68
2022-09-20T12:42:09.641Z,6.00
2022-09-20T12:44:49.712Z,3.47
2022-09-20T12:47:17.190Z,4.18
2022-09-20T12:50:06.162Z,5.57
2022-09-20T12:53:03.641Z,5.53
2022-09-20T12:56:01.955Z,5.22
2022-09-20T12:58:45.214Z,8.43
2022-09-20T13:01:14.481Z,10.40
2022-09-20T13:03:50.028Z,10.10
2022-09-20T13:06:20.761Z,7.72
2022-09-20T13:09:00.272Z,6.35
2022-09-20T13:11:38.487Z,9.13
2022-09-20T13:14:08.983Z,7.93
2022-09-20T13:16:37.274Z,10.40
2022-09-20T13:19:15.450Z,7.13
2022-09-20T13:22:01.150Z,4.82
2022-09-20T13:24:37.742Z,5.55
2022-09-20T13:27:09.470Z,7.00
2022-09-20T13:29:42.450Z,6.28
2022-09-20T13:32:30.198Z,8.20
2022-09-20T13:35:10.069Z,5.90
2022-09-20T13:37:43.054Z,4.38
2022-09-20T13:40:18.542Z,5.00
2022-09-20T13:42:48.693Z,5.22
2022-09-20T13:45:18.440Z,10.77
2022-09-20T13:47:52.483Z,8.27
2022-09-20T13:50:33.091Z,7.72
2022-09-20T13:53:03.473Z,7.45
2022-09-20T13:55:34.444Z,8.77
2022-09-20T13:58:09.163Z,7.53
2022-09-20T14:00:44.964Z,5.40
2022-09-20T14:03:16.963Z,8.43
2022-09-20T14:05:48.079Z,5.03
2022-09-20T14:08:32.511Z,4.35
2022-09-20T14:11:23.438Z,5.03
2022-09-20T14:13:59.768Z,7.00
2022-09-20T14:16:39.626Z,6.28
2022-09-20T14:19:08.527Z,5.57
2022-09-20T14:21:38.346Z,6.43
2022-09-20T14:24:28.920Z,6.95
2022-09-20T14:27:16.356Z,5.95
2022-09-20T14:29:52.523Z,6.22
2022-09-20T14:32:20.783Z,6.15
2022-09-20T14:35:00.489Z,5.20
2022-09-20T14:40:02.505Z,4.88
2022-09-20T14:42:50.919Z,5.57
2022-09-20T14:45:33.412Z,5.15
2022-09-20T14:48:10.721Z,5.47
2022-09-20T14:50:44.955Z,6.82
2022-09-20T14:53:12.733Z,7.63
2022-09-20T14:55:57.650Z,4.32
2022-09-20T14:58:26.918Z,5.40
2022-09-20T15:00:59.182Z,5.15
2022-09-20T15:03:32.576Z,5.30
2022-09-20T15:06:00.519Z,5.10
2022-09-20T15:08:28.405Z,8.30
2022-09-20T15:10:56.179Z,5.97
2022-09-20T15:13:23.805Z,6.57
2022-09-20T15:15:53.714Z,5.72
2022-09-20T15:18:25.379Z,5.32
2022-09-20T15:20:54.892Z,7.47
2022-09-20T15:23:22.755Z,4.57
2022-09-20T15:25:51.500Z,5.68
2022-09-20T15:28:19.431Z,5.63
2022-09-20T15:30:50.400Z,6.00
2022-09-20T15:33:20.602Z,6.15
2022-09-20T15:35:49.204Z,4.93
2022-09-20T15:38:18.979Z,7.70
2022-09-20T15:43:18.423Z,8.52
2022-09-20T15:45:50.364Z,5.28
2022-09-20T15:48:22.966Z,4.47
2022-09-20T15:51:05.968Z,6.47
2022-09-20T15:53:39.907Z,8.70
2022-09-20T15:56:21.183Z,10.45
2022-09-20T15:58:51.471Z,6.63
2022-09-20T16:01:19.950Z,7.53
2022-09-20T16:03:47.539Z,9.77
2022-09-20T16:06:15.382Z,9.85
2022-09-20T16:08:43.837Z,9.20
2022-09-20T16:11:19.234Z,7.03
2022-09-20T16:13:54.783Z,10.37
2022-09-20T16:16:23.033Z,7.07
2022-09-20T16:19:09.264Z,5.70
2022-09-20T16:21:42.192Z,8.02
2022-09-20T16:24:12.615Z,7.93
2022-09-20T16:26:41.225Z,8.50
2022-09-20T16:29:09.615Z,8.73
2022-09-20T16:31:43.910Z,7.80
2022-09-20T16:34:37.935Z,6.68
2022-09-20T16:37:17.084Z,6.22
2022-09-20T16:39:45.011Z,4.68
2022-09-20T16:42:13.527Z,6.85
2022-09-20T16:44:43.070Z,5.97
2022-09-20T16:47:13.987Z,3.58
2022-09-20T16:49:41.478Z,3.95
2022-09-20T16:52:11.188Z,5.30
2022-09-20T16:54:39.028Z,4.53
2022-09-20T16:57:06.738Z,4.05
2022-09-20T16:59:34.963Z,4.22
2022-09-20T17:02:02.458Z,3.63
2022-09-20T17:04:30.938Z,4.32
2022-09-20T17:06:58.975Z,4.05
2022-09-20T17:09:28.337Z,2.50
2022-09-20T17:11:55.953Z,4.68
2022-09-20T17:14:25.146Z,7.03
2022-09-20T17:16:52.775Z,3.22
2022-09-20T17:19:21.327Z,3.63
2022-09-20T17:21:51.083Z,3.75
2022-09-20T17:24:21.002Z,3.67
2022-09-20T17:29:18.956Z,3.45
2022-09-20T17:31:54.569Z,4.43
2022-09-20T17:34:24.688Z,3.75
2022-09-20T17:36:54.227Z,10.00
2022-09-20T17:39:21.703Z,4.82
2022-09-20T17:41:50.352Z,4.82
2022-09-20T17:44:18.119Z,5.50
2022-09-20T17:46:49.664Z,3.60
2022-09-20T17:49:20.071Z,5.25
2022-09-20T17:51:51.570Z,4.95
2022-09-20T17:54:20.294Z,3.60
2022-09-20T17:59:19.769Z,7.70
2022-09-20T18:01:50.010Z,4.53
2022-09-20T18:04:18.338Z,5.10
2022-09-20T18:06:48.020Z,4.47
2022-09-20T18:11:49.118Z,3.78
2022-09-20T18:14:20.494Z,9.07
2022-09-20T18:16:51.229Z,6.50
2022-09-20T18:19:19.167Z,3.50
2022-09-20T18:21:47.331Z,5.93
2022-09-20T18:24:15.640Z,4.07
2022-09-20T18:26:44.644Z,6.32
2022-09-20T18:29:16.741Z,6.97
2022-09-20T18:31:52.200Z,4.88
2022-09-20T18:34:25.461Z,6.93
2022-09-20T18:36:55.652Z,8.57
2022-09-20T18:39:26.226Z,5.68
2022-09-20T18:41:55.158Z,3.72
2022-09-20T18:44:23.432Z,4.93
2022-09-20T18:46:53.092Z,9.13
2022-09-20T18:49:21.730Z,25.38
2022-09-20T18:51:50.074Z,30.98
2022-09-20T18:54:19.037Z,30.90
2022-09-20T18:56:50.672Z,36.50
2022-09-20T18:59:24.357Z,32.35
2022-09-20T19:01:55.225Z,11.32
2022-09-20T19:04:46.883Z,12.27
2022-09-20T19:07:27.256Z,8.10
2022-09-20T19:10:13.869Z,7.65
2022-09-20T19:12:56.008Z,8.27
2022-09-20T19:15:42.578Z,8.02
2022-09-20T19:18:59.043Z,5.75
2022-09-20T19:21:29.403Z,7.47
2022-09-20T19:24:20.702Z,5.60
2022-09-20T19:26:49.026Z,7.95
2022-09-20T19:29:21.404Z,8.02
2022-09-20T19:31:51.855Z,5.72
2022-09-20T19:34:23.020Z,5.10
2022-09-20T19:37:02.390Z,8.88
2022-09-20T19:42:20.432Z,8.27
2022-09-20T19:44:48.300Z,6.20
2022-09-20T19:47:36.826Z,9.40
2022-09-20T19:50:16.193Z,6.03
2022-09-20T19:52:44.717Z,9.43
2022-09-20T19:55:13.605Z,8.50
2022-09-20T19:57:47.171Z,7.20
2022-09-20T20:00:17.380Z,6.57
2022-09-20T20:02:45.862Z,6.10
2022-09-20T20:05:16.380Z,7.05
2022-09-20T20:08:19.867Z,7.20
2022-09-20T20:10:56.736Z,7.15
2022-09-20T20:14:07.194Z,6.00
2022-09-20T20:17:05.306Z,12.10
2022-09-20T20:19:52.766Z,9.90
2022-09-20T20:22:47.309Z,11.40
2022-09-20T20:25:26.562Z,10.23
2022-09-20T20:27:54.244Z,12.55
2022-09-20T20:30:21.732Z,14.00
2022-09-20T20:32:51.106Z,12.82
2022-09-20T20:35:19.350Z,11.15
2022-09-20T20:37:47.525Z,15.77
2022-09-20T20:40:15.410Z,12.40
2022-09-20T20:42:43.596Z,13.15
2022-09-20T20:45:11.827Z,11.88
2022-09-20T20:47:42.763Z,10.70
2022-09-20T20:50:12.783Z,10.43
2022-09-20T20:52:41.166Z,9.95
2022-09-20T20:55:08.949Z,10.75
2022-09-20T20:57:38.048Z,10.75
2022-09-20T21:00:06.291Z,10.73
2022-09-20T21:02:34.958Z,7.63
2022-09-20T21:05:02.564Z,10.80
2022-09-20T21:07:33.519Z,7.88
2022-09-20T21:10:01.775Z,9.75
2022-09-20T21:12:29.347Z,9.70
2022-09-20T21:14:56.951Z,6.80
2022-09-20T21:17:26.659Z,7.75
2022-09-20T21:19:54.171Z,10.25
2022-09-20T21:22:21.599Z,11.20
2022-09-20T21:24:49.301Z,6.75
2022-09-20T21:27:16.746Z,7.72
2022-09-20T21:29:44.210Z,6.68
2022-09-20T21:32:12.208Z,6.70
2022-09-20T21:34:39.711Z,6.85
2022-09-20T21:37:07.367Z,11.00
2022-09-20T21:39:34.967Z,9.05
2022-09-20T21:42:03.820Z,8.13
2022-09-20T21:44:32.527Z,9.60
2022-09-20T21:47:00.168Z,7.55
2022-09-20T21:49:27.623Z,4.68
2022-09-20T21:51:55.360Z,6.75
2022-09-20T21:54:24.257Z,7.65
2022-09-20T21:56:55.768Z,7.43
2022-09-20T21:59:23.370Z,7.15
2022-09-20T22:01:50.985Z,7.22
2022-09-20T22:04:18.644Z,6.15
2022-09-20T22:06:46.395Z,4.93
2022-09-20T22:09:17.219Z,6.80
2022-09-20T22:11:49.041Z,5.50
2022-09-20T22:14:19.790Z,5.07
2022-09-20T22:16:48.780Z,4.00
2022-09-20T22:19:18.780Z,7.40
2022-09-20T22:21:48.527Z,4.97
2022-09-20T22:26:46.693Z,5.93
2022-09-20T22:29:15.243Z,6.30
2022-09-20T22:31:45.723Z,3.53
2022-09-20T22:34:16.915Z,3.25
2022-09-20T22:36:45.133Z,6.25
2022-09-20T22:39:13.648Z,2.97
2022-09-20T22:41:42.926Z,3.45
2022-09-20T22:44:11.421Z,6.25
2022-09-20T22:46:40.435Z,3.35
2022-09-20T22:49:09.524Z,4.85
2022-09-20T22:51:37.726Z,3.75
2022-09-20T22:54:10.812Z,3.13
2022-09-20T22:56:42.388Z,2.50
2022-09-20T22:59:13.233Z,2.30
2022-09-20T23:01:44.265Z,2.65
2022-09-20T23:04:15.150Z,2.83
2022-09-20T23:06:49.182Z,2.22
2022-09-20T23:09:18.637Z,2.10
2022-09-20T23:11:46.799Z,2.03
2022-09-20T23:14:19.531Z,6.40
2022-09-20T23:16:48.265Z,5.60
2022-09-20T23:19:16.749Z,21.10
2022-09-20T23:21:44.699Z,5.47
2022-09-20T23:24:14.462Z,3.00
2022-09-20T23:26:43.686Z,3.42
2022-09-20T23:29:13.844Z,2.85
2022-09-20T23:31:45.793Z,1.92
2022-09-20T23:34:15.594Z,2.28
2022-09-20T23:36:44.498Z,1.38
2022-09-20T23:39:12.713Z,3.70
2022-09-20T23:41:41.477Z,2.95
2022-09-20T23:44:10.375Z,1.98
2022-09-20T23:46:39.054Z,1.63
2022-09-20T23:49:07.195Z,1.58
2022-09-20T23:51:35.706Z,2.55
2022-09-20T23:54:03.943Z,1.50
2022-09-20T23:56:32.115Z,3.42
2022-09-20T23:58:59.720Z,3.92
